sensor_id;sensor_type;location;lat;lon;timestamp;P1;durP1;ratioP1;P2;durP2;ratioP2
12719;SDS011;6424;48.520;11.228;2022-10-26T00:02:00;5.23;;;3.30;;
12719;SDS011;6424;48.520;11.228;2022-10-26T00:04:41;5.17;;;3.67;;
12719;SDS011;6424;48.520;11.228;2022-10-26T00:07:22;3.33;;;2.90;;
12719;SDS011;6424;48.520;11.228;2022-10-26T00:10:03;5.80;;;3.70;;
12719;SDS011;6424;48.520;11.228;2022-10-26T00:12:46;5.07;;;3.77;;
12719;SDS011;6424;48.520;11.228;2022-10-26T00:15:29;5.93;;;3.30;;
12719;SDS011;6424;48.520;11.228;2022-10-26T00:18:10;4.87;;;3.30;;
12719;SDS011;6424;48.520;11.228;2022-10-26T00:20:50;5.30;;;3.10;;
12719;SDS011;6424;48.520;11.228;2022-10-26T00:23:31;2.90;;;2.63;;
12719;SDS011;6424;48.520;11.228;2022-10-26T00:26:13;7.60;;;3.53;;
12719;SDS011;6424;48.520;11.228;2022-10-26T00:28:54;4.97;;;3.00;;
12719;SDS011;6424;48.520;11.228;2022-10-26T00:31:36;6.63;;;3.43;;
12719;SDS011;6424;48.520;11.228;2022-10-26T00:34:17;5.17;;;3.27;;
12719;SDS011;6424;48.520;11.228;2022-10-26T00:36:58;3.67;;;3.20;;
12719;SDS011;6424;48.520;11.228;2022-10-26T00:39:39;5.20;;;3.00;;
12719;SDS011;6424;48.520;11.228;2022-10-26T00:42:20;5.43;;;2.70;;
12719;SDS011;6424;48.520;11.228;2022-10-26T00:45:14;5.40;;;2.87;;
12719;SDS011;6424;48.520;11.228;2022-10-26T00:48:01;5.33;;;3.00;;
12719;SDS011;6424;48.520;11.228;2022-10-26T00:50:45;4.27;;;2.80;;
12719;SDS011;6424;48.520;11.228;2022-10-26T00:53:27;7.50;;;3.00;;
12719;SDS011;6424;48.520;11.228;2022-10-26T00:56:08;5.50;;;3.10;;
12719;SDS011;6424;48.520;11.228;2022-10-26T00:58:49;7.30;;;3.30;;
12719;SDS011;6424;48.520;11.228;2022-10-26T01:01:32;3.13;;;2.80;;
12719;SDS011;6424;48.520;11.228;2022-10-26T01:04:14;6.70;;;3.23;;
12719;SDS011;6424;48.520;11.228;2022-10-26T01:06:55;4.67;;;2.57;;
12719;SDS011;6424;48.520;11.228;2022-10-26T01:09:21;6.20;;;3.00;;
12719;SDS011;6424;48.520;11.228;2022-10-26T01:12:02;3.50;;;2.93;;
12719;SDS011;6424;48.520;11.228;2022-10-26T01:14:29;5.77;;;2.90;;
12719;SDS011;6424;48.520;11.228;2022-10-26T01:23:26;5.63;;;3.10;;
12719;SDS011;6424;48.520;11.228;2022-10-26T01:35:35;3.70;;;2.60;;
12719;SDS011;6424;48.520;11.228;2022-10-26T01:40:52;7.33;;;2.90;;
12719;SDS011;6424;48.520;11.228;2022-10-26T01:43:49;3.23;;;2.50;;
12719;SDS011;6424;48.520;11.228;2022-10-26T01:46:36;5.03;;;2.60;;
12719;SDS011;6424;48.520;11.228;2022-10-26T01:49:21;5.07;;;2.37;;
12719;SDS011;6424;48.520;11.228;2022-10-26T01:52:05;6.97;;;2.50;;
12719;SDS011;6424;48.520;11.228;2022-10-26T01:54:48;3.73;;;2.60;;
12719;SDS011;6424;48.520;11.228;2022-10-26T01:57:29;6.43;;;2.60;;
12719;SDS011;6424;48.520;11.228;2022-10-26T02:00:14;4.57;;;2.80;;
12719;SDS011;6424;48.520;11.228;2022-10-26T02:03:07;3.63;;;2.90;;
12719;SDS011;6424;48.520;11.228;2022-10-26T02:11:44;3.97;;;3.30;;
12719;SDS011;6424;48.520;11.228;2022-10-26T02:14:35;6.30;;;3.63;;
12719;SDS011;6424;48.520;11.228;2022-10-26T02:17:25;5.47;;;3.07;;
12719;SDS011;6424;48.520;11.228;2022-10-26T02:20:16;6.30;;;3.37;;
12719;SDS011;6424;48.520;11.228;2022-10-26T02:23:07;5.00;;;3.13;;
12719;SDS011;6424;48.520;11.228;2022-10-26T02:25:53;3.43;;;2.80;;
12719;SDS011;6424;48.520;11.228;2022-10-26T02:28:37;3.40;;;2.97;;
12719;SDS011;6424;48.520;11.228;2022-10-26T02:31:22;4.80;;;2.73;;
12719;SDS011;6424;48.520;11.228;2022-10-26T02:34:06;6.03;;;3.23;;
12719;SDS011;6424;48.520;11.228;2022-10-26T02:36:48;4.93;;;3.40;;
12719;SDS011;6424;48.520;11.228;2022-10-26T02:39:32;7.43;;;2.97;;
12719;SDS011;6424;48.520;11.228;2022-10-26T02:42:15;4.60;;;3.00;;
12719;SDS011;6424;48.520;11.228;2022-10-26T02:44:59;3.37;;;2.67;;
12719;SDS011;6424;48.520;11.228;2022-10-26T02:47:44;5.47;;;2.73;;
12719;SDS011;6424;48.520;11.228;2022-10-26T02:50:27;5.27;;;3.23;;
12719;SDS011;6424;48.520;11.228;2022-10-26T02:53:23;5.53;;;2.70;;
12719;SDS011;6424;48.520;11.228;2022-10-26T02:56:24;3.33;;;2.67;;
12719;SDS011;6424;48.520;11.228;2022-10-26T02:59:10;4.97;;;3.13;;
12719;SDS011;6424;48.520;11.228;2022-10-26T03:01:52;6.13;;;2.47;;
12719;SDS011;6424;48.520;11.228;2022-10-26T03:04:33;5.67;;;3.03;;
12719;SDS011;6424;48.520;11.228;2022-10-26T03:07:24;5.27;;;2.53;;
12719;SDS011;6424;48.520;11.228;2022-10-26T03:10:05;3.53;;;2.60;;
12719;SDS011;6424;48.520;11.228;2022-10-26T03:12:46;5.67;;;3.30;;
12719;SDS011;6424;48.520;11.228;2022-10-26T03:15:27;12.23;;;2.90;;
12719;SDS011;6424;48.520;11.228;2022-10-26T03:18:08;7.20;;;2.97;;
12719;SDS011;6424;48.520;11.228;2022-10-26T03:20:49;3.70;;;3.20;;
12719;SDS011;6424;48.520;11.228;2022-10-26T03:23:30;5.73;;;3.03;;
12719;SDS011;6424;48.520;11.228;2022-10-26T03:26:11;6.33;;;3.33;;
12719;SDS011;6424;48.520;11.228;2022-10-26T03:28:51;3.20;;;2.90;;
12719;SDS011;6424;48.520;11.228;2022-10-26T03:31:32;4.93;;;3.10;;
12719;SDS011;6424;48.520;11.228;2022-10-26T03:34:13;4.40;;;3.40;;
12719;SDS011;6424;48.520;11.228;2022-10-26T03:36:54;4.60;;;3.50;;
12719;SDS011;6424;48.520;11.228;2022-10-26T03:39:35;4.33;;;3.83;;
12719;SDS011;6424;48.520;11.228;2022-10-26T03:42:15;3.83;;;3.00;;
12719;SDS011;6424;48.520;11.228;2022-10-26T03:44:56;4.27;;;3.10;;
12719;SDS011;6424;48.520;11.228;2022-10-26T03:47:44;3.63;;;3.30;;
12719;SDS011;6424;48.520;11.228;2022-10-26T03:50:25;4.60;;;3.67;;
12719;SDS011;6424;48.520;11.228;2022-10-26T03:53:06;11.80;;;8.07;;
12719;SDS011;6424;48.520;11.228;2022-10-26T03:55:47;7.87;;;5.37;;
12719;SDS011;6424;48.520;11.228;2022-10-26T03:58:13;6.20;;;3.63;;
12719;SDS011;6424;48.520;11.228;2022-10-26T04:00:53;6.13;;;3.77;;
12719;SDS011;6424;48.520;11.228;2022-10-26T04:03:34;7.47;;;4.00;;
12719;SDS011;6424;48.520;11.228;2022-10-26T04:06:15;4.37;;;3.93;;
12719;SDS011;6424;48.520;11.228;2022-10-26T04:08:56;5.53;;;3.30;;
12719;SDS011;6424;48.520;11.228;2022-10-26T04:11:41;4.77;;;3.60;;
12719;SDS011;6424;48.520;11.228;2022-10-26T04:14:22;4.60;;;3.47;;
12719;SDS011;6424;48.520;11.228;2022-10-26T04:17:03;5.13;;;3.80;;
12719;SDS011;6424;48.520;11.228;2022-10-26T04:19:43;5.47;;;4.30;;
12719;SDS011;6424;48.520;11.228;2022-10-26T04:22:24;6.77;;;4.07;;
12719;SDS011;6424;48.520;11.228;2022-10-26T04:25:05;6.27;;;3.70;;
12719;SDS011;6424;48.520;11.228;2022-10-26T04:27:46;6.33;;;3.53;;
12719;SDS011;6424;48.520;11.228;2022-10-26T04:30:27;4.80;;;3.23;;
12719;SDS011;6424;48.520;11.228;2022-10-26T04:33:08;5.37;;;3.17;;
12719;SDS011;6424;48.520;11.228;2022-10-26T04:35:49;5.17;;;3.23;;
12719;SDS011;6424;48.520;11.228;2022-10-26T04:38:30;5.53;;;3.97;;
12719;SDS011;6424;48.520;11.228;2022-10-26T04:41:11;5.27;;;3.73;;
12719;SDS011;6424;48.520;11.228;2022-10-26T04:43:52;4.93;;;3.57;;
12719;SDS011;6424;48.520;11.228;2022-10-26T04:46:32;5.07;;;3.77;;
12719;SDS011;6424;48.520;11.228;2022-10-26T04:49:13;7.27;;;3.90;;
12719;SDS011;6424;48.520;11.228;2022-10-26T04:51:54;6.73;;;3.73;;
12719;SDS011;6424;48.520;11.228;2022-10-26T04:54:35;4.10;;;3.43;;
12719;SDS011;6424;48.520;11.228;2022-10-26T04:57:01;6.93;;;4.20;;
12719;SDS011;6424;48.520;11.228;2022-10-26T04:59:41;5.10;;;4.10;;
12719;SDS011;6424;48.520;11.228;2022-10-26T05:02:22;5.80;;;4.30;;
12719;SDS011;6424;48.520;11.228;2022-10-26T05:05:03;7.13;;;4.00;;
12719;SDS011;6424;48.520;11.228;2022-10-26T05:07:44;7.37;;;4.43;;
12719;SDS011;6424;48.520;11.228;2022-10-26T05:10:33;6.30;;;4.03;;
12719;SDS011;6424;48.520;11.228;2022-10-26T05:13:14;9.73;;;4.43;;
12719;SDS011;6424;48.520;11.228;2022-10-26T05:15:55;6.90;;;4.17;;
12719;SDS011;6424;48.520;11.228;2022-10-26T05:18:36;6.53;;;4.20;;
12719;SDS011;6424;48.520;11.228;2022-10-26T05:21:17;8.27;;;4.03;;
12719;SDS011;6424;48.520;11.228;2022-10-26T05:24:01;8.97;;;4.37;;
12719;SDS011;6424;48.520;11.228;2022-10-26T05:26:41;6.33;;;3.83;;
12719;SDS011;6424;48.520;11.228;2022-10-26T05:29:23;4.30;;;3.40;;
12719;SDS011;6424;48.520;11.228;2022-10-26T05:32:04;8.53;;;3.73;;
12719;SDS011;6424;48.520;11.228;2022-10-26T05:34:45;5.53;;;3.20;;
12719;SDS011;6424;48.520;11.228;2022-10-26T05:37:29;5.63;;;3.13;;
12719;SDS011;6424;48.520;11.228;2022-10-26T05:40:10;6.23;;;2.80;;
12719;SDS011;6424;48.520;11.228;2022-10-26T05:42:51;3.60;;;2.73;;
12719;SDS011;6424;48.520;11.228;2022-10-26T05:45:17;4.50;;;2.83;;
12719;SDS011;6424;48.520;11.228;2022-10-26T05:47:57;4.00;;;2.60;;
12719;SDS011;6424;48.520;11.228;2022-10-26T05:50:38;3.10;;;2.40;;
12719;SDS011;6424;48.520;11.228;2022-10-26T05:53:19;4.50;;;2.93;;
12719;SDS011;6424;48.520;11.228;2022-10-26T05:56:00;3.27;;;2.60;;
12719;SDS011;6424;48.520;11.228;2022-10-26T05:58:41;6.00;;;3.17;;
12719;SDS011;6424;48.520;11.228;2022-10-26T06:01:25;6.97;;;3.03;;
12719;SDS011;6424;48.520;11.228;2022-10-26T06:05:06;9.23;;;3.30;;
12719;SDS011;6424;48.520;11.228;2022-10-26T06:07:27;4.40;;;2.70;;
12719;SDS011;6424;48.520;11.228;2022-10-26T06:10:09;6.00;;;2.97;;
12719;SDS011;6424;48.520;11.228;2022-10-26T06:12:51;3.73;;;3.00;;
12719;SDS011;6424;48.520;11.228;2022-10-26T06:15:33;5.40;;;3.27;;
12719;SDS011;6424;48.520;11.228;2022-10-26T06:21:19;5.70;;;2.80;;
12719;SDS011;6424;48.520;11.228;2022-10-26T06:24:59;3.83;;;3.07;;
12719;SDS011;6424;48.520;11.228;2022-10-26T06:30:27;5.60;;;3.40;;
12719;SDS011;6424;48.520;11.228;2022-10-26T06:33:08;4.30;;;3.77;;
12719;SDS011;6424;48.520;11.228;2022-10-26T06:36:02;3.10;;;2.80;;
12719;SDS011;6424;48.520;11.228;2022-10-26T06:38:59;5.93;;;3.60;;
12719;SDS011;6424;48.520;11.228;2022-10-26T06:41:42;4.63;;;2.83;;
12719;SDS011;6424;48.520;11.228;2022-10-26T06:44:09;3.83;;;3.10;;
12719;SDS011;6424;48.520;11.228;2022-10-26T06:47:01;5.60;;;3.03;;
12719;SDS011;6424;48.520;11.228;2022-10-26T06:50:10;3.67;;;2.90;;
12719;SDS011;6424;48.520;11.228;2022-10-26T06:53:18;6.07;;;3.30;;
12719;SDS011;6424;48.520;11.228;2022-10-26T06:55:56;4.90;;;2.60;;
12719;SDS011;6424;48.520;11.228;2022-10-26T06:58:38;4.87;;;2.70;;
12719;SDS011;6424;48.520;11.228;2022-10-26T07:01:20;3.70;;;2.70;;
12719;SDS011;6424;48.520;11.228;2022-10-26T07:04:01;5.60;;;3.23;;
12719;SDS011;6424;48.520;11.228;2022-10-26T07:06:42;3.10;;;2.40;;
12719;SDS011;6424;48.520;11.228;2022-10-26T07:09:23;3.27;;;2.80;;
12719;SDS011;6424;48.520;11.228;2022-10-26T07:12:04;4.50;;;2.50;;
12719;SDS011;6424;48.520;11.228;2022-10-26T07:14:44;3.10;;;2.73;;
12719;SDS011;6424;48.520;11.228;2022-10-26T07:17:25;4.30;;;2.40;;
12719;SDS011;6424;48.520;11.228;2022-10-26T07:20:10;3.20;;;2.43;;
12719;SDS011;6424;48.520;11.228;2022-10-26T07:22:54;3.13;;;2.30;;
12719;SDS011;6424;48.520;11.228;2022-10-26T07:25:36;3.37;;;2.97;;
12719;SDS011;6424;48.520;11.228;2022-10-26T07:28:19;5.60;;;2.80;;
12719;SDS011;6424;48.520;11.228;2022-10-26T07:31:00;5.90;;;5.30;;
12719;SDS011;6424;48.520;11.228;2022-10-26T07:33:40;6.37;;;4.23;;
12719;SDS011;6424;48.520;11.228;2022-10-26T07:36:22;3.90;;;3.17;;
12719;SDS011;6424;48.520;11.228;2022-10-26T07:39:02;4.97;;;3.47;;
12719;SDS011;6424;48.520;11.228;2022-10-26T07:41:44;5.40;;;3.23;;
12719;SDS011;6424;48.520;11.228;2022-10-26T07:44:10;4.83;;;3.03;;
12719;SDS011;6424;48.520;11.228;2022-10-26T07:46:51;5.97;;;4.87;;
12719;SDS011;6424;48.520;11.228;2022-10-26T07:49:16;6.47;;;3.73;;
12719;SDS011;6424;48.520;11.228;2022-10-26T07:51:57;4.03;;;2.97;;
12719;SDS011;6424;48.520;11.228;2022-10-26T07:54:38;4.67;;;2.67;;
12719;SDS011;6424;48.520;11.228;2022-10-26T07:57:19;6.73;;;2.60;;
12719;SDS011;6424;48.520;11.228;2022-10-26T07:59:59;2.87;;;2.00;;
12719;SDS011;6424;48.520;11.228;2022-10-26T08:02:40;3.03;;;2.30;;
12719;SDS011;6424;48.520;11.228;2022-10-26T08:05:21;4.37;;;2.33;;
12719;SDS011;6424;48.520;11.228;2022-10-26T08:07:47;2.73;;;1.93;;
12719;SDS011;6424;48.520;11.228;2022-10-26T08:10:13;2.47;;;2.27;;
12719;SDS011;6424;48.520;11.228;2022-10-26T08:12:54;3.73;;;2.30;;
12719;SDS011;6424;48.520;11.228;2022-10-26T08:15:55;2.80;;;2.10;;
12719;SDS011;6424;48.520;11.228;2022-10-26T08:18:37;3.03;;;2.20;;
12719;SDS011;6424;48.520;11.228;2022-10-26T08:21:18;2.77;;;2.10;;
12719;SDS011;6424;48.520;11.228;2022-10-26T08:23:44;3.30;;;2.47;;
12719;SDS011;6424;48.520;11.228;2022-10-26T08:26:25;2.27;;;2.07;;
12719;SDS011;6424;48.520;11.228;2022-10-26T08:29:05;2.17;;;2.00;;
12719;SDS011;6424;48.520;11.228;2022-10-26T08:31:31;5.83;;;2.20;;
12719;SDS011;6424;48.520;11.228;2022-10-26T08:34:12;4.33;;;2.43;;
12719;SDS011;6424;48.520;11.228;2022-10-26T08:36:53;5.77;;;2.53;;
12719;SDS011;6424;48.520;11.228;2022-10-26T08:39:34;2.47;;;2.20;;
12719;SDS011;6424;48.520;11.228;2022-10-26T08:42:01;5.23;;;2.70;;
12719;SDS011;6424;48.520;11.228;2022-10-26T08:44:50;3.03;;;2.60;;
12719;SDS011;6424;48.520;11.228;2022-10-26T08:47:44;2.83;;;2.47;;
12719;SDS011;6424;48.520;11.228;2022-10-26T08:50:31;7.43;;;4.87;;
12719;SDS011;6424;48.520;11.228;2022-10-26T08:53:41;6.13;;;4.63;;
12719;SDS011;6424;48.520;11.228;2022-10-26T08:57:03;6.03;;;3.30;;
12719;SDS011;6424;48.520;11.228;2022-10-26T09:02:39;4.63;;;2.40;;
12719;SDS011;6424;48.520;11.228;2022-10-26T09:09:06;3.60;;;2.40;;
12719;SDS011;6424;48.520;11.228;2022-10-26T09:26:13;6.27;;;2.30;;
12719;SDS011;6424;48.520;11.228;2022-10-26T09:28:44;2.90;;;2.17;;
12719;SDS011;6424;48.520;11.228;2022-10-26T09:31:12;4.40;;;2.10;;
12719;SDS011;6424;48.520;11.228;2022-10-26T09:33:56;2.83;;;1.67;;
12719;SDS011;6424;48.520;11.228;2022-10-26T09:36:24;3.47;;;1.50;;
12719;SDS011;6424;48.520;11.228;2022-10-26T09:42:10;3.07;;;1.70;;
12719;SDS011;6424;48.520;11.228;2022-10-26T09:44:58;1.90;;;1.47;;
12719;SDS011;6424;48.520;11.228;2022-10-26T09:47:49;2.17;;;1.57;;
12719;SDS011;6424;48.520;11.228;2022-10-26T09:50:33;4.70;;;1.90;;
12719;SDS011;6424;48.520;11.228;2022-10-26T09:53:16;2.20;;;1.50;;
12719;SDS011;6424;48.520;11.228;2022-10-26T09:56:06;3.60;;;1.60;;
12719;SDS011;6424;48.520;11.228;2022-10-26T09:58:51;3.97;;;1.80;;
12719;SDS011;6424;48.520;11.228;2022-10-26T10:01:38;5.77;;;1.70;;
12719;SDS011;6424;48.520;11.228;2022-10-26T10:09:40;3.40;;;1.70;;
12719;SDS011;6424;48.520;11.228;2022-10-26T10:12:20;3.90;;;1.67;;
12719;SDS011;6424;48.520;11.228;2022-10-26T10:15:01;2.00;;;1.73;;
12719;SDS011;6424;48.520;11.228;2022-10-26T10:17:46;5.13;;;2.00;;
12719;SDS011;6424;48.520;11.228;2022-10-26T10:20:32;4.73;;;2.10;;
12719;SDS011;6424;48.520;11.228;2022-10-26T10:23:13;3.93;;;2.03;;
12719;SDS011;6424;48.520;11.228;2022-10-26T10:26:08;3.60;;;2.37;;
12719;SDS011;6424;48.520;11.228;2022-10-26T10:28:57;3.23;;;2.23;;
12719;SDS011;6424;48.520;11.228;2022-10-26T10:31:40;3.07;;;1.97;;
12719;SDS011;6424;48.520;11.228;2022-10-26T10:34:21;3.70;;;2.17;;
12719;SDS011;6424;48.520;11.228;2022-10-26T10:36:47;3.43;;;1.90;;
12719;SDS011;6424;48.520;11.228;2022-10-26T10:39:47;3.77;;;2.20;;
12719;SDS011;6424;48.520;11.228;2022-10-26T10:42:29;6.23;;;2.00;;
12719;SDS011;6424;48.520;11.228;2022-10-26T10:44:57;6.33;;;2.07;;
12719;SDS011;6424;48.520;11.228;2022-10-26T10:47:39;4.53;;;1.90;;
12719;SDS011;6424;48.520;11.228;2022-10-26T10:50:20;4.43;;;1.90;;
12719;SDS011;6424;48.520;11.228;2022-10-26T10:53:20;4.80;;;2.00;;
12719;SDS011;6424;48.520;11.228;2022-10-26T11:08:01;5.03;;;2.13;;
12719;SDS011;6424;48.520;11.228;2022-10-26T11:10:50;7.00;;;2.27;;
12719;SDS011;6424;48.520;11.228;2022-10-26T11:13:37;3.03;;;1.63;;
12719;SDS011;6424;48.520;11.228;2022-10-26T11:16:30;4.23;;;1.87;;
12719;SDS011;6424;48.520;11.228;2022-10-26T11:22:25;3.83;;;2.10;;
12719;SDS011;6424;48.520;11.228;2022-10-26T11:25:17;4.37;;;2.00;;
12719;SDS011;6424;48.520;11.228;2022-10-26T11:31:38;5.80;;;2.20;;
12719;SDS011;6424;48.520;11.228;2022-10-26T11:45:56;4.43;;;1.97;;
12719;SDS011;6424;48.520;11.228;2022-10-26T11:48:46;3.77;;;1.90;;
12719;SDS011;6424;48.520;11.228;2022-10-26T11:51:42;5.17;;;2.07;;
12719;SDS011;6424;48.520;11.228;2022-10-26T11:54:48;5.43;;;2.83;;
12719;SDS011;6424;48.520;11.228;2022-10-26T11:57:35;5.00;;;2.97;;
12719;SDS011;6424;48.520;11.228;2022-10-26T12:00:17;2.77;;;2.37;;
12719;SDS011;6424;48.520;11.228;2022-10-26T12:02:47;5.53;;;2.20;;
12719;SDS011;6424;48.520;11.228;2022-10-26T12:05:44;3.60;;;1.87;;
12719;SDS011;6424;48.520;11.228;2022-10-26T12:08:32;4.17;;;1.67;;
12719;SDS011;6424;48.520;11.228;2022-10-26T12:20:00;3.00;;;1.83;;
12719;SDS011;6424;48.520;11.228;2022-10-26T12:23:06;8.67;;;2.30;;
12719;SDS011;6424;48.520;11.228;2022-10-26T12:25:50;8.07;;;2.47;;
12719;SDS011;6424;48.520;11.228;2022-10-26T12:34:12;3.70;;;1.63;;
12719;SDS011;6424;48.520;11.228;2022-10-26T12:39:41;5.03;;;1.90;;
12719;SDS011;6424;48.520;11.228;2022-10-26T12:45:18;4.07;;;1.93;;
12719;SDS011;6424;48.520;11.228;2022-10-26T12:48:00;6.57;;;2.27;;
12719;SDS011;6424;48.520;11.228;2022-10-26T12:50:42;5.20;;;2.13;;
12719;SDS011;6424;48.520;11.228;2022-10-26T12:53:12;7.00;;;1.80;;
12719;SDS011;6424;48.520;11.228;2022-10-26T12:56:03;4.57;;;1.60;;
12719;SDS011;6424;48.520;11.228;2022-10-26T13:01:35;4.50;;;1.80;;
12719;SDS011;6424;48.520;11.228;2022-10-26T13:07:23;7.60;;;1.93;;
12719;SDS011;6424;48.520;11.228;2022-10-26T13:10:16;3.37;;;2.00;;
12719;SDS011;6424;48.520;11.228;2022-10-26T13:12:58;3.10;;;1.70;;
12719;SDS011;6424;48.520;11.228;2022-10-26T13:15:52;10.93;;;4.13;;
12719;SDS011;6424;48.520;11.228;2022-10-26T13:18:40;7.20;;;2.73;;
12719;SDS011;6424;48.520;11.228;2022-10-26T13:21:24;5.33;;;2.83;;
12719;SDS011;6424;48.520;11.228;2022-10-26T13:32:52;6.17;;;2.30;;
12719;SDS011;6424;48.520;11.228;2022-10-26T13:35:20;6.33;;;2.10;;
12719;SDS011;6424;48.520;11.228;2022-10-26T13:38:05;7.07;;;2.53;;
12719;SDS011;6424;48.520;11.228;2022-10-26T13:40:35;4.70;;;2.20;;
12719;SDS011;6424;48.520;11.228;2022-10-26T13:43:18;7.30;;;2.17;;
12719;SDS011;6424;48.520;11.228;2022-10-26T13:46:03;5.53;;;2.40;;
12719;SDS011;6424;48.520;11.228;2022-10-26T13:48:44;5.97;;;2.30;;
12719;SDS011;6424;48.520;11.228;2022-10-26T13:51:31;4.87;;;2.13;;
12719;SDS011;6424;48.520;11.228;2022-10-26T13:54:24;9.33;;;2.43;;
12719;SDS011;6424;48.520;11.228;2022-10-26T13:57:20;6.03;;;2.50;;
12719;SDS011;6424;48.520;11.228;2022-10-26T14:00:09;6.03;;;2.00;;
12719;SDS011;6424;48.520;11.228;2022-10-26T14:03:11;4.40;;;2.20;;
12719;SDS011;6424;48.520;11.228;2022-10-26T14:05:57;6.07;;;2.27;;
12719;SDS011;6424;48.520;11.228;2022-10-26T14:08:39;6.87;;;2.50;;
12719;SDS011;6424;48.520;11.228;2022-10-26T14:11:25;6.57;;;2.57;;
12719;SDS011;6424;48.520;11.228;2022-10-26T14:14:16;3.87;;;2.20;;
12719;SDS011;6424;48.520;11.228;2022-10-26T14:17:19;8.93;;;3.90;;
12719;SDS011;6424;48.520;11.228;2022-10-26T14:20:02;4.70;;;2.80;;
12719;SDS011;6424;48.520;11.228;2022-10-26T14:22:44;5.30;;;2.23;;
12719;SDS011;6424;48.520;11.228;2022-10-26T14:25:26;4.50;;;2.23;;
12719;SDS011;6424;48.520;11.228;2022-10-26T14:28:19;3.93;;;1.90;;
12719;SDS011;6424;48.520;11.228;2022-10-26T14:31:11;4.40;;;1.93;;
12719;SDS011;6424;48.520;11.228;2022-10-26T14:33:53;5.70;;;2.30;;
12719;SDS011;6424;48.520;11.228;2022-10-26T14:36:40;4.00;;;1.83;;
12719;SDS011;6424;48.520;11.228;2022-10-26T14:42:28;4.43;;;1.80;;
12719;SDS011;6424;48.520;11.228;2022-10-26T14:44:55;6.33;;;2.10;;
12719;SDS011;6424;48.520;11.228;2022-10-26T14:47:36;5.10;;;2.13;;
12719;SDS011;6424;48.520;11.228;2022-10-26T14:50:16;5.47;;;2.63;;
12719;SDS011;6424;48.520;11.228;2022-10-26T14:53:00;7.17;;;2.80;;
12719;SDS011;6424;48.520;11.228;2022-10-26T14:55:53;5.20;;;2.27;;
12719;SDS011;6424;48.520;11.228;2022-10-26T14:58:35;6.13;;;2.50;;
12719;SDS011;6424;48.520;11.228;2022-10-26T15:04:05;32.27;;;18.77;;
12719;SDS011;6424;48.520;11.228;2022-10-26T15:06:32;35.70;;;22.23;;
12719;SDS011;6424;48.520;11.228;2022-10-26T15:12:31;14.40;;;9.63;;
12719;SDS011;6424;48.520;11.228;2022-10-26T15:15:20;11.63;;;7.83;;
12719;SDS011;6424;48.520;11.228;2022-10-26T15:18:02;9.50;;;4.83;;
12719;SDS011;6424;48.520;11.228;2022-10-26T15:20:47;3.80;;;2.93;;
12719;SDS011;6424;48.520;11.228;2022-10-26T15:23:29;6.00;;;2.93;;
12719;SDS011;6424;48.520;11.228;2022-10-26T15:26:10;5.70;;;2.97;;
12719;SDS011;6424;48.520;11.228;2022-10-26T15:28:52;8.43;;;3.13;;
12719;SDS011;6424;48.520;11.228;2022-10-26T15:31:33;8.07;;;2.97;;
12719;SDS011;6424;48.520;11.228;2022-10-26T15:34:14;6.23;;;2.40;;
12719;SDS011;6424;48.520;11.228;2022-10-26T15:36:55;8.37;;;2.90;;
12719;SDS011;6424;48.520;11.228;2022-10-26T15:39:36;6.20;;;2.53;;
12719;SDS011;6424;48.520;11.228;2022-10-26T15:42:16;6.00;;;2.67;;
12719;SDS011;6424;48.520;11.228;2022-10-26T15:44:57;26.10;;;20.13;;
12719;SDS011;6424;48.520;11.228;2022-10-26T15:47:38;23.73;;;18.80;;
12719;SDS011;6424;48.520;11.228;2022-10-26T15:50:23;26.37;;;22.13;;
12719;SDS011;6424;48.520;11.228;2022-10-26T15:53:08;70.17;;;55.63;;
12719;SDS011;6424;48.520;11.228;2022-10-26T15:55:57;54.63;;;43.70;;
12719;SDS011;6424;48.520;11.228;2022-10-26T15:58:24;64.07;;;52.53;;
12719;SDS011;6424;48.520;11.228;2022-10-26T16:01:20;42.30;;;33.67;;
12719;SDS011;6424;48.520;11.228;2022-10-26T16:04:02;48.47;;;40.90;;
12719;SDS011;6424;48.520;11.228;2022-10-26T16:06:43;59.90;;;53.00;;
12719;SDS011;6424;48.520;11.228;2022-10-26T16:09:25;33.90;;;30.27;;
12719;SDS011;6424;48.520;11.228;2022-10-26T16:12:09;22.10;;;16.63;;
12719;SDS011;6424;48.520;11.228;2022-10-26T16:14:51;13.30;;;6.10;;
12719;SDS011;6424;48.520;11.228;2022-10-26T16:17:32;7.23;;;3.57;;
12719;SDS011;6424;48.520;11.228;2022-10-26T16:20:13;7.47;;;3.17;;
12719;SDS011;6424;48.520;11.228;2022-10-26T16:22:57;4.63;;;2.90;;
12719;SDS011;6424;48.520;11.228;2022-10-26T16:25:26;7.17;;;3.13;;
12719;SDS011;6424;48.520;11.228;2022-10-26T16:28:07;7.47;;;3.23;;
12719;SDS011;6424;48.520;11.228;2022-10-26T16:30:50;14.80;;;11.03;;
12719;SDS011;6424;48.520;11.228;2022-10-26T16:33:37;14.90;;;11.60;;
12719;SDS011;6424;48.520;11.228;2022-10-26T16:36:18;15.90;;;13.93;;
12719;SDS011;6424;48.520;11.228;2022-10-26T16:38:59;11.70;;;10.33;;
12719;SDS011;6424;48.520;11.228;2022-10-26T16:41:40;18.23;;;15.73;;
12719;SDS011;6424;48.520;11.228;2022-10-26T16:44:06;33.67;;;26.60;;
12719;SDS011;6424;48.520;11.228;2022-10-26T16:46:46;16.33;;;11.63;;
12719;SDS011;6424;48.520;11.228;2022-10-26T16:49:27;7.27;;;5.60;;
12719;SDS011;6424;48.520;11.228;2022-10-26T16:52:08;7.13;;;3.83;;
12719;SDS011;6424;48.520;11.228;2022-10-26T16:54:49;7.07;;;3.60;;
12719;SDS011;6424;48.520;11.228;2022-10-26T16:57:30;7.10;;;3.50;;
12719;SDS011;6424;48.520;11.228;2022-10-26T17:00:11;6.37;;;3.63;;
12719;SDS011;6424;48.520;11.228;2022-10-26T17:02:52;21.83;;;11.17;;
12719;SDS011;6424;48.520;11.228;2022-10-26T17:05:33;41.47;;;28.77;;
12719;SDS011;6424;48.520;11.228;2022-10-26T17:08:13;48.73;;;32.67;;
12719;SDS011;6424;48.520;11.228;2022-10-26T17:10:57;34.03;;;22.57;;
12719;SDS011;6424;48.520;11.228;2022-10-26T17:13:42;28.10;;;17.97;;
12719;SDS011;6424;48.520;11.228;2022-10-26T17:16:23;25.53;;;16.37;;
12719;SDS011;6424;48.520;11.228;2022-10-26T17:19:04;23.13;;;16.73;;
12719;SDS011;6424;48.520;11.228;2022-10-26T17:21:45;21.60;;;15.63;;
12719;SDS011;6424;48.520;11.228;2022-10-26T17:24:26;18.27;;;12.97;;
12719;SDS011;6424;48.520;11.228;2022-10-26T17:27:07;12.70;;;7.43;;
12719;SDS011;6424;48.520;11.228;2022-10-26T17:29:33;12.43;;;8.43;;
12719;SDS011;6424;48.520;11.228;2022-10-26T17:32:13;13.57;;;9.00;;
12719;SDS011;6424;48.520;11.228;2022-10-26T17:34:55;9.27;;;5.80;;
12719;SDS011;6424;48.520;11.228;2022-10-26T17:37:36;12.07;;;5.80;;
12719;SDS011;6424;48.520;11.228;2022-10-26T17:40:04;9.73;;;6.30;;
12719;SDS011;6424;48.520;11.228;2022-10-26T17:42:45;8.17;;;4.60;;
12719;SDS011;6424;48.520;11.228;2022-10-26T17:45:26;9.57;;;3.93;;
12719;SDS011;6424;48.520;11.228;2022-10-26T17:48:06;8.00;;;3.50;;
12719;SDS011;6424;48.520;11.228;2022-10-26T17:50:47;10.53;;;3.47;;
12719;SDS011;6424;48.520;11.228;2022-10-26T17:53:28;5.77;;;2.87;;
12719;SDS011;6424;48.520;11.228;2022-10-26T17:56:10;6.73;;;3.10;;
12719;SDS011;6424;48.520;11.228;2022-10-26T17:58:58;8.30;;;3.23;;
12719;SDS011;6424;48.520;11.228;2022-10-26T18:01:42;8.60;;;3.10;;
12719;SDS011;6424;48.520;11.228;2022-10-26T18:04:22;8.73;;;3.53;;
12719;SDS011;6424;48.520;11.228;2022-10-26T18:07:03;4.13;;;2.83;;
12719;SDS011;6424;48.520;11.228;2022-10-26T18:09:44;10.70;;;3.53;;
12719;SDS011;6424;48.520;11.228;2022-10-26T18:12:24;8.37;;;3.80;;
12719;SDS011;6424;48.520;11.228;2022-10-26T18:15:06;7.30;;;4.17;;
12719;SDS011;6424;48.520;11.228;2022-10-26T18:17:48;11.40;;;6.30;;
12719;SDS011;6424;48.520;11.228;2022-10-26T18:20:30;11.33;;;5.90;;
12719;SDS011;6424;48.520;11.228;2022-10-26T18:23:10;10.47;;;4.60;;
12719;SDS011;6424;48.520;11.228;2022-10-26T18:26:04;7.30;;;4.17;;
12719;SDS011;6424;48.520;11.228;2022-10-26T18:28:47;9.87;;;4.47;;
12719;SDS011;6424;48.520;11.228;2022-10-26T18:31:29;5.70;;;4.07;;
12719;SDS011;6424;48.520;11.228;2022-10-26T18:34:10;10.67;;;5.67;;